Salt Flat, TX

12:44 PM MDT on May 28, 2015 (GMT -0600)
Cavern City | | Change Station
CLOSE
Current Station
Airport
Location: Carlsbad,
Elevation: 3294 ft
Nearby Weather Stations

Elev 3294 ft 32.33 °N, 104.26 °W | Updated 51 minutes ago

Clear
Clear
80 °F
Feels Like 82 °F
N
12
Wind Variable Wind from SSE

Today
High -- | Low -- °F
--% Chance of Precip.
Yesterday
High -- | Low -- °F
Precip. -- in
5:56 AM 7:58 PM
Waxing Gibbous, 77% visible
Pressure 29.83 in
Visibility 9.0 miles
Clouds Clear
Heat Index 82 °F
Dew Point 64 °F
Humidity 58%
Rainfall 0.00 in
Snow Depth Not available.
UV 12 out of 12
Pollen 5.80 out of 12
Air Quality Not available.
Flu Activity Sporadic
METAR KCNM 281753Z AUTO 15010KT 9SM CLR 27/18 A2999 RMK AO2 SLP101 T02670178 10272 20172 58006

More Conditions Fewer Conditions

Pressure 29.83 in
Visibility 9.0 miles
Clouds Clear
Heat Index 82 °F
Dew Point 64 °F
Humidity 58%
Rainfall 0.00 in
Snow Depth Not available.
UV 12 out of 12
Pollen 5.80 out of 12
Air Quality Not available.
Flu Activity Sporadic
METAR KCNM 281753Z AUTO 15010KT 9SM CLR 27/18 A2999 RMK AO2 SLP101 T02670178 10272 20172 58006

More Conditions Fewer Conditions

10-Day Weather Forecast

Almanac

Astronomy

May. 28, 2015 Rise Set
Actual Time
Civil Twilight
Nautical Twilight
Astronomical Twilight
Moon
Length of Visible Light
Length of Day
Tomorrow will be .
, % of the Moon is Illuminated

Today's Extremes

State Highs State Lows

Community

WunderPhotos

Upload Photos

1,825,015 photos uploaded!

WunderBlogs® & News

Nearby

Air Quality

  Air Quality AQ Index Pollutant
Not available.

Snow Depth

Station Depth Elevation

Earthquake Activity

City Distance Mag. Time & Date
Minimum magnitude displayed is 2.5.

Coastal Water Temperatures

Place Temperature

Stations

Nearby Weather Stations

Station Location Temp. Windchill Dew Point Humidity Wind Precip. Elev Updated Type